createdAt,value
2022-10-11T00:01:20.643Z,6.20
2022-10-11T00:03:49.803Z,6.20
2022-10-11T00:06:21.641Z,6.20
2022-10-11T00:08:50.818Z,6.20
2022-10-11T00:11:19.800Z,6.20
2022-10-11T00:13:48.783Z,6.20
2022-10-11T00:16:19.230Z,6.20
2022-10-11T00:18:48.118Z,6.20
2022-10-11T00:21:21.765Z,6.20
2022-10-11T00:23:51.139Z,6.30
2022-10-11T00:26:20.077Z,6.40
2022-10-11T00:28:49.191Z,6.40
2022-10-11T00:31:20.067Z,6.50
2022-10-11T00:33:49.881Z,6.50
2022-10-11T00:36:19.186Z,6.70
2022-10-11T00:38:48.366Z,6.70
2022-10-11T00:41:18.807Z,6.80
2022-10-11T00:43:47.739Z,6.90
2022-10-11T00:46:33.228Z,7.00
2022-10-11T00:49:06.998Z,6.80
2022-10-11T00:51:45.006Z,7.00
2022-10-11T00:54:16.748Z,7.00
2022-10-11T00:56:49.908Z,7.00
2022-10-11T00:59:22.480Z,7.00
2022-10-11T01:01:53.480Z,7.10
2022-10-11T01:04:22.758Z,7.00
2022-10-11T01:06:53.577Z,7.00
2022-10-11T01:09:24.008Z,7.00
2022-10-11T01:11:55.718Z,7.00
2022-10-11T01:14:55.618Z,7.10
2022-10-11T01:17:40.981Z,7.10
2022-10-11T01:20:32.377Z,7.20
2022-10-11T01:23:26.199Z,7.40
2022-10-11T01:26:19.679Z,7.50
2022-10-11T01:28:53.960Z,7.60
2022-10-11T01:31:28.419Z,7.60
2022-10-11T01:34:01.566Z,7.60
2022-10-11T01:36:34.818Z,7.60
2022-10-11T01:39:07.089Z,7.60
2022-10-11T01:41:40.706Z,7.70
2022-10-11T01:44:11.502Z,7.70
2022-10-11T01:46:42.654Z,7.70
2022-10-11T01:49:12.139Z,7.70
2022-10-11T01:51:47.343Z,7.80
2022-10-11T01:55:08.594Z,7.80
2022-10-11T01:57:57.598Z,7.80
2022-10-11T02:00:29.995Z,7.80
2022-10-11T02:03:14.718Z,7.80
2022-10-11T02:05:48.818Z,7.80
2022-10-11T02:08:23.697Z,7.70
2022-10-11T02:13:47.745Z,7.70
2022-10-11T02:16:21.518Z,7.70
2022-10-11T02:18:57.458Z,7.60
2022-10-11T02:21:27.426Z,7.60
2022-10-11T02:24:01.635Z,7.60
2022-10-11T02:26:33.026Z,7.60
2022-10-11T02:29:05.338Z,7.60
2022-10-11T02:31:37.092Z,7.60
2022-10-11T02:34:14.834Z,7.60
2022-10-11T02:36:52.406Z,7.70
2022-10-11T02:39:26.116Z,7.70
2022-10-11T02:41:59.219Z,7.60
2022-10-11T02:44:32.998Z,7.60
2022-10-11T02:47:02.747Z,7.60
2022-10-11T02:49:34.519Z,7.50
2022-10-11T02:52:06.849Z,7.50
2022-10-11T02:54:36.499Z,7.40
2022-10-11T02:57:05.520Z,7.40
2022-10-11T02:59:34.438Z,7.40
2022-10-11T03:02:03.893Z,7.40
2022-10-11T03:04:34.477Z,7.50
2022-10-11T03:07:03.620Z,7.60
2022-10-11T03:09:33.055Z,7.60
2022-10-11T03:12:02.057Z,7.60
2022-10-11T03:14:31.116Z,7.60
2022-10-11T03:17:17.326Z,7.50
2022-10-11T03:19:51.846Z,7.50
2022-10-11T03:22:21.218Z,7.50
2022-10-11T03:24:50.290Z,7.50
2022-10-11T03:27:19.286Z,7.50
2022-10-11T03:29:48.447Z,7.50
2022-10-11T03:32:17.589Z,7.50
2022-10-11T03:34:46.686Z,7.50
2022-10-11T03:37:17.327Z,7.50
2022-10-11T03:39:46.459Z,7.40
2022-10-11T03:42:15.886Z,7.40
2022-10-11T03:44:45.117Z,7.40
2022-10-11T03:47:14.289Z,7.40
2022-10-11T03:49:43.970Z,7.50
2022-10-11T03:52:13.359Z,7.50
2022-10-11T03:54:44.207Z,7.60
2022-10-11T03:57:13.341Z,7.60
2022-10-11T03:59:42.234Z,7.70
2022-10-11T04:02:11.844Z,7.60
2022-10-11T04:04:40.960Z,7.70
2022-10-11T04:07:12.274Z,7.70
2022-10-11T04:09:42.827Z,7.80
2022-10-11T04:12:11.986Z,7.80
2022-10-11T04:14:41.123Z,7.90
2022-10-11T04:17:10.279Z,7.90
2022-10-11T04:19:39.486Z,7.90
2022-10-11T04:22:08.844Z,7.90
2022-10-11T04:24:38.054Z,7.90
2022-10-11T04:27:08.478Z,8.00
2022-10-11T04:29:37.781Z,8.00
2022-10-11T04:32:07.246Z,8.00
2022-10-11T04:34:36.282Z,8.10
2022-10-11T04:37:05.534Z,8.10
2022-10-11T04:39:34.486Z,8.10
2022-10-11T04:42:03.715Z,8.00
2022-10-11T04:44:35.750Z,7.90
2022-10-11T04:47:05.718Z,7.90
2022-10-11T04:49:34.878Z,7.90
2022-10-11T04:52:05.200Z,8.00
2022-10-11T04:54:34.958Z,8.00
2022-10-11T04:57:05.126Z,8.00
2022-10-11T04:59:38.284Z,8.00
2022-10-11T05:02:07.829Z,8.10
2022-10-11T05:04:36.806Z,8.10
2022-10-11T05:07:07.081Z,8.30
2022-10-11T05:09:36.099Z,8.30
2022-10-11T05:12:05.648Z,8.30
2022-10-11T05:14:36.558Z,8.30
2022-10-11T05:17:05.616Z,8.40
2022-10-11T05:19:34.726Z,8.30
2022-10-11T05:22:03.850Z,8.30
2022-10-11T05:24:32.814Z,8.50
2022-10-11T05:27:03.555Z,8.50
2022-10-11T05:29:33.019Z,8.40
2022-10-11T05:32:03.805Z,8.40
2022-10-11T05:34:32.786Z,8.40
2022-10-11T05:37:01.779Z,8.30
2022-10-11T05:39:31.209Z,8.20
2022-10-11T05:42:00.279Z,8.20
2022-10-11T05:44:29.385Z,8.10
2022-10-11T05:46:58.598Z,8.00
2022-10-11T05:49:29.624Z,7.90
2022-10-11T05:52:00.774Z,7.70
2022-10-11T05:54:31.927Z,7.60
2022-10-11T05:57:00.902Z,7.50
2022-10-11T05:59:29.922Z,7.50
2022-10-11T06:01:59.044Z,7.50
2022-10-11T06:04:30.238Z,7.60
2022-10-11T06:06:59.966Z,7.60
2022-10-11T06:09:28.838Z,7.50
2022-10-11T06:11:58.860Z,7.50
2022-10-11T06:14:28.139Z,7.50
2022-10-11T06:16:57.389Z,7.60
2022-10-11T06:19:27.339Z,7.60
2022-10-11T06:21:57.768Z,7.50
2022-10-11T06:24:26.939Z,7.50
2022-10-11T06:26:56.007Z,7.50
2022-10-11T06:29:24.986Z,7.60
2022-10-11T06:31:54.379Z,7.60
2022-10-11T06:34:23.539Z,7.60
2022-10-11T06:36:52.699Z,7.80
2022-10-11T06:39:23.126Z,7.90
2022-10-11T06:41:52.679Z,8.00
2022-10-11T06:44:22.920Z,8.10
2022-10-11T06:46:51.838Z,8.20
2022-10-11T06:49:23.469Z,8.30
2022-10-11T06:51:52.745Z,8.50
2022-10-11T06:54:24.406Z,8.70
2022-10-11T06:56:53.426Z,9.10
2022-10-11T06:59:22.618Z,9.60
2022-10-11T07:01:51.806Z,9.80
2022-10-11T07:04:20.896Z,10.00
2022-10-11T07:06:50.028Z,10.40
2022-10-11T07:09:19.335Z,10.60
2022-10-11T07:11:49.858Z,11.00
2022-10-11T07:14:19.179Z,11.10
2022-10-11T07:16:48.158Z,11.30
2022-10-11T07:19:17.296Z,11.40
2022-10-11T07:21:46.567Z,11.40
2022-10-11T07:24:15.586Z,11.30
2022-10-11T07:26:44.638Z,11.40
2022-10-11T07:29:15.298Z,11.40
2022-10-11T07:31:45.149Z,11.60
2022-10-11T07:34:14.681Z,11.80
2022-10-11T07:36:43.838Z,11.80
2022-10-11T07:39:12.986Z,11.80
2022-10-11T07:41:45.686Z,11.80
2022-10-11T07:44:16.746Z,11.90
2022-10-11T07:46:45.838Z,12.00
2022-10-11T07:49:14.899Z,12.30
2022-10-11T07:51:44.020Z,12.50
2022-10-11T07:54:13.349Z,12.60
2022-10-11T07:56:42.458Z,12.60
2022-10-11T07:59:13.146Z,12.50
2022-10-11T08:01:43.703Z,12.60
2022-10-11T08:04:12.848Z,12.70
2022-10-11T08:06:42.700Z,12.70
2022-10-11T08:09:13.171Z,12.80
2022-10-11T08:11:42.379Z,12.80
2022-10-11T08:14:12.025Z,12.70
2022-10-11T08:16:43.060Z,12.60
2022-10-11T08:19:12.678Z,12.40
2022-10-11T08:21:41.712Z,12.30
2022-10-11T08:24:11.059Z,12.30
2022-10-11T08:26:40.237Z,12.50
2022-10-11T08:29:09.566Z,12.60
2022-10-11T08:31:38.620Z,12.70
2022-10-11T08:34:09.562Z,12.90
2022-10-11T08:36:43.869Z,12.90
2022-10-11T08:39:13.338Z,12.90
2022-10-11T08:41:47.781Z,12.90
2022-10-11T08:44:41.415Z,13.00
2022-10-11T08:47:23.209Z,13.10
2022-10-11T08:49:54.282Z,13.40
2022-10-11T08:52:25.059Z,14.30
2022-10-11T08:54:58.081Z,15.10
2022-10-11T08:57:29.661Z,15.40
2022-10-11T09:00:01.255Z,15.50
2022-10-11T09:03:06.407Z,15.60
2022-10-11T09:05:35.330Z,15.40
2022-10-11T09:08:12.506Z,15.80
2022-10-11T09:10:57.886Z,15.80
2022-10-11T09:13:42.953Z,16.10
2022-10-11T09:16:24.694Z,16.20
2022-10-11T09:19:27.319Z,15.90
2022-10-11T09:22:07.597Z,15.70
2022-10-11T09:24:49.383Z,15.70
2022-10-11T09:27:49.866Z,15.50
2022-10-11T09:30:23.049Z,15.40
2022-10-11T09:33:07.767Z,15.30
2022-10-11T09:35:47.378Z,15.20
2022-10-11T09:38:47.494Z,15.40
2022-10-11T09:41:32.086Z,15.70
2022-10-11T09:44:01.118Z,15.80
2022-10-11T09:46:36.515Z,16.20
2022-10-11T09:49:09.313Z,16.00
2022-10-11T09:51:39.546Z,15.80
2022-10-11T09:54:11.067Z,15.90
2022-10-11T09:56:44.607Z,16.40
2022-10-11T09:59:35.537Z,16.60
2022-10-11T10:02:21.922Z,16.60
2022-10-11T10:05:15.928Z,16.60
2022-10-11T10:08:15.147Z,16.80
2022-10-11T10:10:49.158Z,16.90
2022-10-11T10:13:23.866Z,16.90
2022-10-11T10:15:55.403Z,17.10
2022-10-11T10:18:28.110Z,17.30
2022-10-11T10:20:59.924Z,17.30
2022-10-11T10:23:30.866Z,17.10
2022-10-11T10:26:17.586Z,16.60
2022-10-11T10:29:05.879Z,16.20
2022-10-11T10:32:01.913Z,16.30
2022-10-11T10:34:32.518Z,16.40
2022-10-11T10:37:08.198Z,16.90
2022-10-11T10:39:43.406Z,17.30
2022-10-11T10:42:18.178Z,17.20
2022-10-11T10:44:51.787Z,17.10
2022-10-11T10:47:33.880Z,16.80
2022-10-11T10:50:08.779Z,16.70
2022-10-11T10:52:57.967Z,16.70
2022-10-11T10:55:35.302Z,16.90
2022-10-11T10:58:24.324Z,17.30
2022-10-11T11:00:59.999Z,17.40
2022-10-11T11:03:34.523Z,17.30
2022-10-11T11:06:07.875Z,17.20
2022-10-11T11:08:54.921Z,17.30
2022-10-11T11:11:47.102Z,17.40
2022-10-11T11:14:29.977Z,17.20
2022-10-11T11:17:31.006Z,17.50
2022-10-11T11:20:17.440Z,17.70
2022-10-11T11:22:54.178Z,17.80
2022-10-11T11:25:31.628Z,18.00
2022-10-11T11:28:14.848Z,17.80
2022-10-11T11:30:54.469Z,17.80
2022-10-11T11:33:37.639Z,17.90
2022-10-11T11:36:13.098Z,17.90
2022-10-11T11:38:46.538Z,18.10
2022-10-11T11:41:20.858Z,17.90
2022-10-11T11:44:00.751Z,17.60
2022-10-11T11:46:35.194Z,17.00
2022-10-11T11:49:13.148Z,16.50
2022-10-11T11:51:45.785Z,16.20
2022-10-11T11:54:28.627Z,15.80
2022-10-11T11:57:04.059Z,15.60
2022-10-11T11:59:39.620Z,15.40
2022-10-11T12:02:33.238Z,15.20
2022-10-11T12:05:02.727Z,15.10
2022-10-11T12:07:31.899Z,14.90
2022-10-11T12:10:26.018Z,14.80
2022-10-11T12:13:10.171Z,14.70
2022-10-11T12:15:39.659Z,14.50
2022-10-11T12:18:18.138Z,14.50
2022-10-11T12:20:47.606Z,14.60
2022-10-11T12:23:43.048Z,14.90
2022-10-11T12:26:38.667Z,15.20
2022-10-11T12:29:29.040Z,15.20
2022-10-11T12:32:50.860Z,15.20
2022-10-11T12:35:42.998Z,15.40
2022-10-11T12:38:21.658Z,15.70
2022-10-11T12:40:52.585Z,15.70
2022-10-11T12:43:33.750Z,15.90
2022-10-11T12:46:50.652Z,15.90
2022-10-11T12:49:39.488Z,15.70
2022-10-11T12:52:25.607Z,15.70
2022-10-11T12:55:23.568Z,15.40
2022-10-11T12:58:16.808Z,15.30
2022-10-11T13:01:17.881Z,15.30
2022-10-11T13:03:51.298Z,15.30
2022-10-11T13:06:22.659Z,15.10
2022-10-11T13:08:57.579Z,14.80
2022-10-11T13:11:31.477Z,14.70
2022-10-11T13:14:02.787Z,14.50
2022-10-11T13:16:47.814Z,14.40
2022-10-11T13:19:18.309Z,14.40
2022-10-11T13:21:54.678Z,14.40
2022-10-11T13:24:27.221Z,14.40
2022-10-11T13:26:58.519Z,14.40
2022-10-11T13:29:34.268Z,14.40
2022-10-11T13:32:06.390Z,14.50
2022-10-11T13:34:39.378Z,14.50
2022-10-11T13:37:09.425Z,14.60
2022-10-11T13:39:43.461Z,14.80
2022-10-11T13:42:15.720Z,14.90
2022-10-11T13:44:46.779Z,15.00
2022-10-11T13:47:18.705Z,15.00
2022-10-11T13:49:53.761Z,15.10
2022-10-11T13:52:25.218Z,15.20
2022-10-11T13:55:15.223Z,15.20
2022-10-11T13:57:47.438Z,15.00
2022-10-11T14:00:32.790Z,14.80
2022-10-11T14:03:05.458Z,14.60
2022-10-11T14:05:39.608Z,14.50
2022-10-11T14:08:21.330Z,14.40
2022-10-11T14:10:57.243Z,14.30
2022-10-11T14:13:32.095Z,14.20
2022-10-11T14:16:10.975Z,14.20
2022-10-11T14:18:46.095Z,14.00
2022-10-11T14:21:51.639Z,13.90
2022-10-11T14:24:21.218Z,13.70
2022-10-11T14:26:54.818Z,13.60
2022-10-11T14:29:27.809Z,13.50
2022-10-11T14:32:03.119Z,13.40
2022-10-11T14:34:32.675Z,13.30
2022-10-11T14:37:02.020Z,13.20
2022-10-11T14:39:34.204Z,13.10
2022-10-11T14:42:05.419Z,13.10
2022-10-11T14:44:34.570Z,13.00
2022-10-11T14:47:06.968Z,13.00
2022-10-11T14:49:38.219Z,12.90
2022-10-11T14:52:09.288Z,12.80
2022-10-11T14:54:39.015Z,12.70
2022-10-11T14:57:09.832Z,12.60
2022-10-11T14:59:39.519Z,12.50
2022-10-11T15:02:10.467Z,12.50
2022-10-11T15:04:39.780Z,12.40
2022-10-11T15:07:09.039Z,12.30
2022-10-11T15:09:38.182Z,12.20
2022-10-11T15:12:09.148Z,12.10
2022-10-11T15:14:38.452Z,12.00
2022-10-11T15:17:07.736Z,12.00
2022-10-11T15:19:38.368Z,11.90
2022-10-11T15:22:07.599Z,11.80
2022-10-11T15:24:36.808Z,11.80
2022-10-11T15:27:06.007Z,11.60
2022-10-11T15:29:36.986Z,11.50
2022-10-11T15:32:07.038Z,11.40
2022-10-11T15:34:36.298Z,11.20
2022-10-11T15:37:05.539Z,11.10
2022-10-11T15:39:34.787Z,11.00
2022-10-11T15:42:04.098Z,10.90
2022-10-11T15:44:33.086Z,10.70
2022-10-11T15:47:03.823Z,10.60
2022-10-11T15:49:33.286Z,10.50
2022-10-11T15:52:02.948Z,10.40
2022-10-11T15:54:32.154Z,10.30
2022-10-11T15:57:01.659Z,10.20
2022-10-11T15:59:31.158Z,10.10
2022-10-11T16:02:00.319Z,10.00
2022-10-11T16:04:31.086Z,9.90
2022-10-11T16:07:00.376Z,9.80
2022-10-11T16:09:30.427Z,9.70
2022-10-11T16:11:59.635Z,9.60
2022-10-11T16:14:28.839Z,9.50
2022-10-11T16:17:00.687Z,9.40
2022-10-11T16:19:31.426Z,9.30
2022-10-11T16:22:00.597Z,9.10
2022-10-11T16:24:29.734Z,8.90
2022-10-11T16:26:58.826Z,8.90
2022-10-11T16:29:28.106Z,8.80
2022-10-11T16:31:57.150Z,8.70
2022-10-11T16:34:26.310Z,8.60
2022-10-11T16:36:56.826Z,8.60
2022-10-11T16:39:26.039Z,8.50
2022-10-11T16:41:55.288Z,8.50
2022-10-11T16:44:28.164Z,8.40
2022-10-11T16:46:57.662Z,8.30
2022-10-11T16:49:28.859Z,8.30
2022-10-11T16:52:02.559Z,8.20
2022-10-11T16:54:32.869Z,8.10
2022-10-11T16:57:02.047Z,8.10
2022-10-11T16:59:32.058Z,8.00
2022-10-11T17:02:01.308Z,7.90
2022-10-11T17:04:30.476Z,7.90
2022-10-11T17:07:01.214Z,7.80
2022-10-11T17:09:30.478Z,7.80
2022-10-11T17:11:59.945Z,7.80
2022-10-11T17:14:29.932Z,7.80
2022-10-11T17:16:59.061Z,7.80
2022-10-11T17:19:28.686Z,7.70
2022-10-11T17:21:57.858Z,7.70
2022-10-11T17:24:28.686Z,7.70
2022-10-11T17:26:57.679Z,7.70
2022-10-11T17:29:28.218Z,7.60
2022-10-11T17:31:57.400Z,7.60
2022-10-11T17:34:27.084Z,7.60
2022-10-11T17:36:56.819Z,7.50
2022-10-11T17:39:28.338Z,7.50
2022-10-11T17:41:57.617Z,7.50
2022-10-11T17:44:26.878Z,7.40
2022-10-11T17:46:55.943Z,7.40
2022-10-11T17:49:25.043Z,7.40
2022-10-11T17:51:55.039Z,7.40
2022-10-11T17:54:24.518Z,7.30
2022-10-11T17:56:56.179Z,7.30
2022-10-11T17:59:27.898Z,7.30
2022-10-11T18:01:57.488Z,7.30
2022-10-11T18:04:28.035Z,7.30
2022-10-11T18:06:57.517Z,7.30
2022-10-11T18:09:28.440Z,7.30
2022-10-11T18:11:59.163Z,7.30
2022-10-11T18:14:28.428Z,7.30
2022-10-11T18:16:57.743Z,7.20
2022-10-11T18:19:27.258Z,7.20
2022-10-11T18:21:56.907Z,7.20
2022-10-11T18:24:26.139Z,7.20
2022-10-11T18:26:55.587Z,7.10
2022-10-11T18:29:27.138Z,7.10
2022-10-11T18:31:56.614Z,7.10
2022-10-11T18:34:25.818Z,7.00
2022-10-11T18:36:56.339Z,7.00
2022-10-11T18:39:25.806Z,7.00
2022-10-11T18:41:55.183Z,6.90
2022-10-11T18:44:27.298Z,6.90
2022-10-11T18:46:56.845Z,6.90
2022-10-11T18:49:26.118Z,6.80
2022-10-11T18:51:55.326Z,6.80
2022-10-11T18:54:25.982Z,6.80
2022-10-11T18:56:55.620Z,6.80
2022-10-11T18:59:26.526Z,6.80
2022-10-11T19:01:56.019Z,6.90
2022-10-11T19:04:25.667Z,6.80
2022-10-11T19:06:54.678Z,6.70
2022-10-11T19:09:26.754Z,6.70
2022-10-11T19:11:58.791Z,6.70
2022-10-11T19:14:30.826Z,6.60
2022-10-11T19:17:00.052Z,6.60
2022-10-11T19:19:31.560Z,6.60
2022-10-11T19:22:00.920Z,6.60
2022-10-11T19:24:31.532Z,6.60
2022-10-11T19:27:02.847Z,6.60
2022-10-11T19:29:34.849Z,6.60
2022-10-11T19:32:05.297Z,6.60
2022-10-11T19:34:34.398Z,6.60
2022-10-11T19:37:04.558Z,6.60
2022-10-11T19:39:33.941Z,6.60
2022-10-11T19:42:04.658Z,6.50
2022-10-11T19:44:39.566Z,6.50
2022-10-11T19:47:09.787Z,6.50
2022-10-11T19:49:39.320Z,6.50
2022-10-11T19:52:09.976Z,6.50
2022-10-11T19:54:39.424Z,6.50
2022-10-11T19:57:09.546Z,6.50
2022-10-11T19:59:40.153Z,6.50
2022-10-11T20:02:10.628Z,6.50
2022-10-11T20:04:52.184Z,6.40
2022-10-11T20:07:22.581Z,6.40
2022-10-11T20:09:51.758Z,6.40
2022-10-11T20:12:21.180Z,6.40
2022-10-11T20:14:52.211Z,6.40
2022-10-11T20:17:21.309Z,6.40
2022-10-11T20:19:50.618Z,6.40
2022-10-11T20:22:19.786Z,6.40
2022-10-11T20:24:48.938Z,6.40
2022-10-11T20:27:18.065Z,6.40
2022-10-11T20:29:47.559Z,6.40
2022-10-11T20:32:19.538Z,6.40
2022-10-11T20:34:48.483Z,6.40
2022-10-11T20:37:17.655Z,6.40
2022-10-11T20:39:46.647Z,6.40
2022-10-11T20:42:15.646Z,6.30
2022-10-11T20:44:44.848Z,6.40
2022-10-11T20:47:13.834Z,6.30
2022-10-11T20:49:44.340Z,6.30
2022-10-11T20:52:13.387Z,6.30
2022-10-11T20:54:42.454Z,6.20
2022-10-11T20:57:11.459Z,6.30
2022-10-11T20:59:40.478Z,6.20
2022-10-11T21:02:13.383Z,6.20
2022-10-11T21:04:45.858Z,6.20
2022-10-11T21:07:15.067Z,6.20
2022-10-11T21:09:44.066Z,6.10
2022-10-11T21:12:13.313Z,6.10
2022-10-11T21:14:42.487Z,6.10
2022-10-11T21:17:11.839Z,6.10
2022-10-11T21:19:40.927Z,6.00
2022-10-11T21:22:11.470Z,6.10
2022-10-11T21:24:40.406Z,6.10
2022-10-11T21:27:09.738Z,6.00
2022-10-11T21:29:38.678Z,6.10
2022-10-11T21:32:12.039Z,6.00
2022-10-11T21:34:43.198Z,6.00
2022-10-11T21:37:13.633Z,6.00
2022-10-11T21:39:42.678Z,6.00
2022-10-11T21:42:11.786Z,6.00
2022-10-11T21:44:43.493Z,6.00
2022-10-11T21:47:12.861Z,6.00
2022-10-11T21:49:41.797Z,6.00
2022-10-11T21:52:12.748Z,5.90
2022-10-11T21:54:41.746Z,5.90
2022-10-11T21:57:10.874Z,5.90
2022-10-11T21:59:39.886Z,5.90
2022-10-11T22:02:09.178Z,5.80
2022-10-11T22:07:26.379Z,5.80
2022-10-11T22:09:55.420Z,5.80
2022-10-11T22:12:24.405Z,5.70
2022-10-11T22:14:53.526Z,5.70
2022-10-11T22:17:22.843Z,5.70
2022-10-11T22:19:51.823Z,5.70
2022-10-11T22:22:21.480Z,5.70
2022-10-11T22:24:52.084Z,5.70
2022-10-11T22:27:21.141Z,5.70
2022-10-11T22:29:50.160Z,5.60
2022-10-11T22:32:19.412Z,5.60
2022-10-11T22:34:48.373Z,5.60
2022-10-11T22:37:17.459Z,5.60
2022-10-11T22:39:50.100Z,5.60
2022-10-11T22:42:24.109Z,5.60
2022-10-11T22:44:55.940Z,5.60
2022-10-11T22:47:26.144Z,5.50
2022-10-11T22:49:55.305Z,5.60
2022-10-11T22:52:24.313Z,5.60
2022-10-11T22:54:53.543Z,5.50
2022-10-11T22:57:24.424Z,5.50
2022-10-11T22:59:53.411Z,5.50
2022-10-11T23:02:22.568Z,5.50
2022-10-11T23:04:54.104Z,5.50
2022-10-11T23:07:23.224Z,5.50
2022-10-11T23:09:52.341Z,5.50
2022-10-11T23:12:22.691Z,5.50
2022-10-11T23:14:51.744Z,5.40
2022-10-11T23:17:20.752Z,5.40
2022-10-11T23:19:49.960Z,5.40
2022-10-11T23:22:19.046Z,5.40
2022-10-11T23:24:48.065Z,5.30
2022-10-11T23:27:17.140Z,5.30
2022-10-11T23:29:47.792Z,5.30
2022-10-11T23:32:16.879Z,5.30
2022-10-11T23:34:46.105Z,5.30
2022-10-11T23:37:15.465Z,5.30
2022-10-11T23:39:44.931Z,5.30
2022-10-11T23:42:14.518Z,5.30
2022-10-11T23:44:43.720Z,5.20
2022-10-11T23:47:14.294Z,5.20
2022-10-11T23:49:43.347Z,5.20
2022-10-11T23:52:18.465Z,5.10
2022-10-11T23:54:47.598Z,5.10
2022-10-11T23:57:16.579Z,5.10
2022-10-11T23:59:46.028Z,5.00
